createdAt,value
2017-03-26T00:00:55.683Z,1019.36
2017-03-26T00:05:51.987Z,1019.35
2017-03-26T00:10:48.319Z,1019.42
2017-03-26T00:15:44.829Z,1019.26
2017-03-26T00:20:41.161Z,1018.96
2017-03-26T00:25:37.656Z,1018.88
2017-03-26T00:30:33.981Z,1018.97
2017-03-26T00:35:30.572Z,1018.91
2017-03-26T00:40:27.088Z,1019.02
2017-03-26T00:45:24.291Z,1019.26
2017-03-26T00:50:20.474Z,1019.37
2017-03-26T00:55:17.035Z,1019.23
2017-03-26T01:00:12.797Z,1019.13
2017-03-26T01:05:10.073Z,1019.12
2017-03-26T01:10:06.472Z,1019.14
2017-03-26T01:15:02.931Z,1019.11
2017-03-26T01:19:59.312Z,1019.16
2017-03-26T01:24:55.894Z,1019.23
2017-03-26T01:29:52.265Z,1019.11
2017-03-26T01:34:48.779Z,1019.02
2017-03-26T01:39:45.072Z,1018.96
2017-03-26T01:44:41.330Z,1019.00
2017-03-26T01:49:37.712Z,1019.06
2017-03-26T01:54:33.934Z,1019.09
2017-03-26T01:59:30.389Z,1019.02
2017-03-26T02:04:26.828Z,1018.95
2017-03-26T02:09:23.192Z,1018.84
2017-03-26T02:14:19.376Z,1018.88
2017-03-26T02:19:16.110Z,1018.97
2017-03-26T02:24:12.518Z,1018.88
2017-03-26T02:29:09.120Z,1018.82
2017-03-26T02:34:05.873Z,1018.79
2017-03-26T02:39:01.965Z,1018.83
2017-03-26T02:43:58.607Z,1019.02
2017-03-26T02:48:54.575Z,1019.06
2017-03-26T02:53:51.155Z,1018.99
2017-03-26T02:58:47.123Z,1018.98
2017-03-26T03:03:43.688Z,1018.99
2017-03-26T03:08:40.160Z,1018.96
2017-03-26T03:13:37.209Z,1018.82
2017-03-26T03:18:33.882Z,1018.82
2017-03-26T03:23:30.203Z,1018.67
2017-03-26T03:28:26.764Z,1018.70
2017-03-26T03:33:23.691Z,1018.71
2017-03-26T03:38:20.352Z,1018.75
2017-03-26T03:43:18.051Z,1018.69
2017-03-26T03:48:13.986Z,1018.58
2017-03-26T03:53:10.528Z,1018.68
2017-03-26T03:58:07.737Z,1018.71
2017-03-26T04:03:04.232Z,1018.78
2017-03-26T04:08:02.066Z,1018.77
2017-03-26T04:12:58.298Z,1018.80
2017-03-26T04:17:54.737Z,1018.79
2017-03-26T04:22:51.189Z,1018.80
2017-03-26T04:27:47.906Z,1018.76
2017-03-26T04:32:43.617Z,1018.75
2017-03-26T04:42:40.142Z,1018.65
2017-03-26T04:47:38.055Z,1018.56
2017-03-26T04:52:34.279Z,1018.70
2017-03-26T04:57:31.558Z,1018.75
2017-03-26T05:02:28.174Z,1018.54
2017-03-26T05:07:24.459Z,1018.52
2017-03-26T05:12:21.795Z,1018.52
2017-03-26T05:17:18.377Z,1018.57
2017-03-26T05:22:15.122Z,1018.64
2017-03-26T05:27:12.165Z,1018.69
2017-03-26T05:32:09.538Z,1018.72
2017-03-26T05:37:06.134Z,1018.67
2017-03-26T05:42:02.779Z,1018.73
2017-03-26T05:46:59.255Z,1018.92
2017-03-26T05:51:55.346Z,1019.11
2017-03-26T06:01:51.978Z,1018.99
2017-03-26T06:06:48.329Z,1019.10
2017-03-26T06:11:44.731Z,1019.16
2017-03-26T06:16:42.481Z,1019.18
2017-03-26T06:21:39.158Z,1019.34
2017-03-26T06:26:35.538Z,1019.24
2017-03-26T06:31:32.245Z,1019.25
2017-03-26T06:36:29.401Z,1019.31
2017-03-26T06:41:25.997Z,1019.29
2017-03-26T06:46:22.800Z,1019.28
2017-03-26T06:51:20.162Z,1019.27
2017-03-26T06:56:16.663Z,1019.33
2017-03-26T07:01:14.555Z,1019.23
2017-03-26T07:06:11.150Z,1019.38
2017-03-26T07:11:08.099Z,1019.37
2017-03-26T07:16:07.090Z,1019.36
2017-03-26T07:21:02.968Z,1019.39
2017-03-26T07:25:59.465Z,1019.38
2017-03-26T07:30:55.924Z,1019.41
2017-03-26T07:35:52.983Z,1019.50
2017-03-26T07:40:49.461Z,1019.44
2017-03-26T07:45:46.090Z,1019.50
2017-03-26T07:50:43.388Z,1019.60
2017-03-26T07:55:40.091Z,1019.65
2017-03-26T08:00:37.036Z,1019.78
2017-03-26T08:05:33.783Z,1019.69
2017-03-26T08:10:31.590Z,1019.65
2017-03-26T08:15:27.992Z,1019.60
2017-03-26T08:20:24.888Z,1019.64
2017-03-26T08:25:22.179Z,1019.58
2017-03-26T08:30:18.847Z,1019.58
2017-03-26T08:35:14.751Z,1019.61
2017-03-26T08:40:11.250Z,1019.66
2017-03-26T08:45:07.527Z,1019.73
2017-03-26T08:50:04.097Z,1019.61
2017-03-26T08:55:00.535Z,1019.70
2017-03-26T08:59:57.214Z,1019.68
2017-03-26T09:04:54.287Z,1019.65
2017-03-26T09:09:50.605Z,1019.59
2017-03-26T09:14:46.703Z,1019.58
2017-03-26T09:19:44.515Z,1019.56
2017-03-26T10:26:18.898Z,1019.66
2017-03-26T10:35:55.869Z,1019.28
2017-03-26T10:40:55.654Z,1019.36
2017-03-26T10:45:51.515Z,1019.20
2017-03-26T10:50:49.186Z,1019.21
2017-03-26T10:55:46.047Z,1019.31
2017-03-26T11:00:42.528Z,1019.15
2017-03-26T11:05:39.344Z,1019.23
2017-03-26T11:10:36.749Z,1019.15
2017-03-26T11:15:33.925Z,1019.15
2017-03-26T11:20:31.287Z,1019.26
2017-03-26T11:25:28.234Z,1019.11
2017-03-26T11:30:30.907Z,1019.09
2017-03-26T11:35:27.482Z,1019.07
2017-03-26T11:40:27.284Z,1018.94
2017-03-26T11:45:24.092Z,1018.94
2017-03-26T11:50:21.031Z,1018.94
2017-03-26T11:55:17.699Z,1018.90
2017-03-26T12:00:15.046Z,1018.88
2017-03-26T12:05:11.513Z,1018.84
2017-03-26T12:10:08.714Z,1018.96
2017-03-26T12:15:05.281Z,1018.84
2017-03-26T12:20:02.233Z,1018.76
2017-03-26T12:24:59.891Z,1018.62
2017-03-26T12:29:56.233Z,1018.70
2017-03-26T12:34:52.221Z,1018.58
2017-03-26T12:39:48.001Z,1018.52
2017-03-26T12:44:44.414Z,1018.56
2017-03-26T12:49:42.733Z,1018.48
2017-03-26T12:54:39.289Z,1018.36
2017-03-26T12:59:35.108Z,1018.42
2017-03-26T13:04:31.354Z,1018.38
2017-03-26T13:09:28.868Z,1018.32
2017-03-26T13:14:25.413Z,1018.38
2017-03-26T13:19:22.357Z,1018.31
2017-03-26T13:24:19.391Z,1018.30
2017-03-26T13:29:16.308Z,1018.26
2017-03-26T13:34:12.721Z,1018.43
2017-03-26T13:39:10.162Z,1018.16
2017-03-26T13:44:06.933Z,1018.00
2017-03-26T13:49:02.987Z,1018.03
2017-03-26T13:54:00.337Z,1018.05
2017-03-26T13:58:57.075Z,1018.00
2017-03-26T14:03:53.879Z,1017.86
2017-03-26T14:08:51.282Z,1017.85
2017-03-26T14:13:48.490Z,1017.87
2017-03-26T14:18:44.622Z,1017.88
2017-03-26T14:23:40.951Z,1017.72
2017-03-26T14:28:37.241Z,1017.84
2017-03-26T14:33:34.955Z,1017.84
2017-03-26T14:38:31.412Z,1017.69
2017-03-26T14:43:28.010Z,1017.72
2017-03-26T14:48:24.464Z,1017.68
2017-03-26T14:53:20.790Z,1017.71
2017-03-26T14:58:17.259Z,1017.70
2017-03-26T15:03:13.315Z,1017.69
2017-03-26T15:08:09.763Z,1017.66
2017-03-26T15:13:06.255Z,1017.69
2017-03-26T15:18:02.522Z,1017.59
2017-03-26T15:22:58.954Z,1017.65
2017-03-26T15:27:55.687Z,1017.73
2017-03-26T15:32:51.810Z,1017.75
2017-03-26T15:37:48.217Z,1017.73
2017-03-26T15:42:45.084Z,1017.69
2017-03-26T15:47:41.659Z,1017.72
2017-03-26T15:52:38.203Z,1017.71
2017-03-26T15:57:34.580Z,1017.64
2017-03-26T16:02:30.670Z,1017.61
2017-03-26T16:07:27.537Z,1017.58
2017-03-26T16:12:24.081Z,1017.64
2017-03-26T16:17:21.623Z,1017.67
2017-03-26T16:22:18.859Z,1017.70
2017-03-26T16:27:15.227Z,1017.76
2017-03-26T16:32:11.249Z,1017.71
2017-03-26T16:37:08.199Z,1017.85
2017-03-26T16:42:04.769Z,1017.88
2017-03-26T16:47:01.852Z,1017.82
2017-03-26T16:51:58.778Z,1017.82
2017-03-26T16:56:55.155Z,1017.84
2017-03-26T17:01:51.824Z,1017.85
2017-03-26T17:06:48.549Z,1017.82
2017-03-26T17:11:45.454Z,1017.81
2017-03-26T17:16:42.013Z,1017.81
2017-03-26T17:21:38.915Z,1017.77
2017-03-26T17:26:35.476Z,1017.82
2017-03-26T17:31:32.086Z,1017.81
2017-03-26T17:36:28.653Z,1017.79
2017-03-26T17:41:25.423Z,1017.85
2017-03-26T17:46:22.343Z,1017.92
2017-03-26T17:51:18.823Z,1018.04
2017-03-26T17:56:15.897Z,1017.98
2017-03-26T18:01:12.638Z,1018.03
2017-03-26T18:06:09.428Z,1017.97
2017-03-26T18:11:06.137Z,1018.01
2017-03-26T18:16:03.075Z,1018.08
2017-03-26T18:21:00.261Z,1018.15
2017-03-26T18:30:57.412Z,1018.22
2017-03-26T18:35:54.004Z,1018.20
2017-03-26T18:40:50.021Z,1018.24
2017-03-26T18:45:46.701Z,1018.28
2017-03-26T18:50:43.362Z,1018.27
2017-03-26T18:55:39.961Z,1018.28
2017-03-26T19:00:36.697Z,1018.39
2017-03-26T19:05:33.965Z,1018.40
2017-03-26T19:10:30.268Z,1018.42
2017-03-26T19:15:26.907Z,1018.41
2017-03-26T19:20:23.145Z,1018.46
2017-03-26T19:25:19.590Z,1018.50
2017-03-26T19:30:15.868Z,1018.47
2017-03-26T19:35:12.848Z,1018.51
2017-03-26T19:40:08.795Z,1018.64
2017-03-26T19:45:04.807Z,1018.66
2017-03-26T19:50:01.188Z,1018.72
2017-03-26T19:54:58.688Z,1018.71
2017-03-26T19:59:55.270Z,1018.81
2017-03-26T20:04:52.779Z,1018.85
2017-03-26T20:09:49.355Z,1018.88
2017-03-26T20:14:45.535Z,1018.83
2017-03-26T20:19:42.234Z,1018.86
2017-03-26T20:24:38.534Z,1018.83
2017-03-26T20:29:34.672Z,1018.84
2017-03-26T20:34:32.339Z,1018.88
2017-03-26T20:39:29.554Z,1018.83
2017-03-26T20:44:26.235Z,1018.88
2017-03-26T20:49:22.461Z,1018.93
2017-03-26T20:54:19.039Z,1018.95
2017-03-26T20:59:17.239Z,1018.93
2017-03-26T21:04:13.416Z,1018.92
2017-03-26T21:09:10.022Z,1018.93
2017-03-26T21:14:06.583Z,1018.83
2017-03-26T21:19:03.299Z,1018.84
2017-03-26T21:23:59.780Z,1018.84
2017-03-26T21:33:57.643Z,1018.85
2017-03-26T21:38:53.825Z,1018.78
2017-03-26T21:43:50.082Z,1018.73
2017-03-26T21:48:46.618Z,1018.76
2017-03-26T21:53:43.173Z,1018.81
2017-03-26T21:58:39.764Z,1018.75
2017-03-26T22:03:36.384Z,1018.90
2017-03-26T22:08:32.801Z,1018.71
2017-03-26T22:13:30.094Z,1018.79
2017-03-26T22:18:26.355Z,1018.73
2017-03-26T22:23:23.136Z,1018.77
2017-03-26T22:28:19.947Z,1018.77
2017-03-26T22:33:16.430Z,1018.71
2017-03-26T22:38:12.695Z,1018.69
2017-03-26T22:43:10.407Z,1018.63
2017-03-26T22:48:06.768Z,1018.64
2017-03-26T22:53:03.110Z,1018.54
2017-03-26T22:57:59.811Z,1018.55
2017-03-26T23:02:56.489Z,1018.56
2017-03-26T23:07:53.237Z,1018.49
2017-03-26T23:12:50.328Z,1018.61
2017-03-26T23:17:46.812Z,1018.54
2017-03-26T23:22:43.690Z,1018.54
2017-03-26T23:27:40.413Z,1018.46
2017-03-26T23:32:36.850Z,1018.59
2017-03-26T23:37:33.517Z,1018.59
2017-03-26T23:42:30.333Z,1018.57
2017-03-26T23:47:27.453Z,1018.63
2017-03-26T23:52:24.127Z,1018.52
2017-03-26T23:57:20.453Z,1018.57
